»·PEaware :: N2822D KRNM-KSMX

N2822D :: KRNM-KSMX

FLIGHT INFORMATION

Flight Status: Arrived
Operator: Privately registered:
United States
More flights under this callsign
Pilot: Keith B. (30325)
Aircraft: BEECH AIRCRAFT BARON
(BE58)
More flights by this aircraft type
Origin: KRNM Ramona
United States
Destination: KSMX Santa Maria Pub/Capt Hancock
United States
More flights between these airports :: More routes between these airports
Route: KVCB KEDU SAC GIFME RBLEW PXN AVE KSMX
File this flight plan on PilotEdge
Remarks:
Altitude:
(Current/Filed)
8,500ft
Speed:
(Current/Filed)
180kts
Departed: 09-Nov-20 06:36 AM
Arrived: 09-Nov-20 07:57 AM
Distance/Time
Traveled:
208nm/1:21
Distance/Time
To Go:
Arrived

Flight Plot

Page will automatically refresh every two minutes.

Flight plan parsing failed; only flown route is shown


Map Options




Map Legend


Flown Route
Filed Route
Departure Airport
Arrival Airport
Navaid (VOR, NDB)
Fix

Horizontal Profiles

Position Reports

Time Latitude Longitude Heading Altitude Ground
Speed
09-Nov-20 06:06 38.375174 -121.960850 34 110ft 0kts
09-Nov-20 06:07 38.375174 -121.960850 34 110ft 0kts
09-Nov-20 06:08 38.374959 -121.960496 216 110ft 10kts
09-Nov-20 06:09 38.374774 -121.961391 303 113ft 1kts
09-Nov-20 06:10 38.373602 -121.964120 213 116ft 21kts
09-Nov-20 06:11 38.372127 -121.965232 257 118ft 0kts
09-Nov-20 06:12 38.372127 -121.965232 257 118ft 0kts
09-Nov-20 06:13 38.372127 -121.965232 257 118ft 0kts
09-Nov-20 06:14 38.372127 -121.965232 257 118ft 0kts
09-Nov-20 06:15 38.372127 -121.965232 257 118ft 0kts
09-Nov-20 06:16 38.372127 -121.965232 257 118ft 0kts
09-Nov-20 06:17 38.372127 -121.965232 257 118ft 0kts
09-Nov-20 06:18 38.372127 -121.965232 257 118ft 0kts
09-Nov-20 06:19 38.372127 -121.965232 257 118ft 0kts
09-Nov-20 06:20 38.372127 -121.965232 257 118ft 0kts
09-Nov-20 06:21 38.372127 -121.965232 257 118ft 0kts
09-Nov-20 06:22 38.372127 -121.965232 257 118ft 0kts
09-Nov-20 06:23 38.375181 -121.960844 34 110ft 0kts
09-Nov-20 06:24 38.375174 -121.960850 34 110ft 0kts
09-Nov-20 06:25 38.375174 -121.960850 34 110ft 0kts
09-Nov-20 06:26 38.375174 -121.960850 34 110ft 0kts
09-Nov-20 06:27 38.374639 -121.961119 303 112ft 10kts
09-Nov-20 06:28 38.372854 -121.964753 215 115ft 24kts
09-Nov-20 06:29 38.372155 -121.965186 241 118ft 0kts
09-Nov-20 06:30 38.372155 -121.965186 241 118ft 0kts
09-Nov-20 06:31 38.372155 -121.965186 241 118ft 0kts
09-Nov-20 06:32 38.372155 -121.965186 241 118ft 0kts
09-Nov-20 06:33 38.372155 -121.965186 241 118ft 0kts
09-Nov-20 06:34 38.372155 -121.965186 241 118ft 0kts
09-Nov-20 06:35 38.379029 -121.960372 27 184ft 104kts
09-Nov-20 06:36 38.404422 -121.931456 36 1424ft 139kts
09-Nov-20 06:37 38.434106 -121.897418 37 2644ft 144kts
09-Nov-20 06:38 38.463162 -121.864273 37 3828ft 136kts
09-Nov-20 06:39 38.490694 -121.832832 37 4996ft 130kts
09-Nov-20 06:40 38.516820 -121.803340 35 6150ft 122kts
09-Nov-20 06:41 38.524678 -121.757635 109 6482ft 179kts
09-Nov-20 06:42 38.498846 -121.698759 110 6472ft 193kts
09-Nov-20 06:43 38.479917 -121.647558 111 6467ft 195kts
09-Nov-20 06:44 38.452401 -121.574169 110 6516ft 191kts
09-Nov-20 06:45 38.405748 -121.547258 193 6494ft 201kts
09-Nov-20 06:46 38.351197 -121.565819 183 6482ft 211kts
09-Nov-20 06:47 38.292579 -121.573004 189 6496ft 217kts
09-Nov-20 06:48 38.232322 -121.581007 191 6801ft 215kts
09-Nov-20 06:49 38.172191 -121.581521 162 7087ft 222kts
09-Nov-20 06:50 38.112137 -121.562455 166 7277ft 225kts
09-Nov-20 06:51 38.051334 -121.548014 172 7475ft 223kts
09-Nov-20 06:53 37.990629 -121.532024 169 7677ft 223kts
09-Nov-20 06:54 37.929601 -121.515983 172 7815ft 225kts
09-Nov-20 06:55 37.870330 -121.493971 146 8161ft 216kts
09-Nov-20 06:56 37.818102 -121.458207 153 8512ft 219kts
09-Nov-20 06:57 37.761758 -121.424299 148 8485ft 228kts
09-Nov-20 06:58 37.705752 -121.387805 149 8508ft 226kts
09-Nov-20 06:59 37.648910 -121.352479 148 8491ft 229kts
09-Nov-20 07:00 37.591549 -121.317201 150 8519ft 229kts
09-Nov-20 07:01 37.536448 -121.282859 152 8491ft 213kts
09-Nov-20 07:02 37.484283 -121.250177 152 8479ft 207kts
09-Nov-20 07:03 37.433116 -121.217718 150 8475ft 205kts
09-Nov-20 07:04 37.381858 -121.185676 152 8467ft 205kts
09-Nov-20 07:05 37.329863 -121.153562 152 8463ft 213kts
09-Nov-20 07:06 37.276162 -121.120409 152 8458ft 216kts
09-Nov-20 07:07 37.222140 -121.087091 152 8460ft 216kts
09-Nov-20 07:08 37.168435 -121.054064 152 8471ft 216kts
09-Nov-20 07:09 37.114314 -121.020782 152 8470ft 216kts
09-Nov-20 07:10 37.060387 -120.987707 152 8461ft 216kts
09-Nov-20 07:10 37.015517 -120.960201 152 8467ft 216kts
09-Nov-20 07:12 36.952308 -120.921540 152 8478ft 216kts
09-Nov-20 07:12 36.907115 -120.894190 153 8475ft 217kts
09-Nov-20 07:14 36.844272 -120.856236 152 8543ft 216kts
09-Nov-20 07:14 36.798936 -120.828678 152 8529ft 218kts
09-Nov-20 07:16 36.735054 -120.789704 154 8542ft 224kts
09-Nov-20 07:16 36.689414 -120.758399 144 8512ft 223kts
09-Nov-20 07:17 36.636486 -120.718272 146 8480ft 224kts
09-Nov-20 07:18 36.583512 -120.677817 146 8509ft 223kts
09-Nov-20 07:19 36.530541 -120.637222 148 8503ft 225kts
09-Nov-20 07:20 36.477241 -120.597022 145 8500ft 225kts
09-Nov-20 07:21 36.423764 -120.556860 146 8512ft 224kts
09-Nov-20 07:22 36.370057 -120.516678 147 8495ft 224kts
09-Nov-20 07:23 36.317013 -120.475987 146 8466ft 225kts
09-Nov-20 07:24 36.263556 -120.436469 148 8445ft 222kts
09-Nov-20 07:25 36.211500 -120.397328 147 8446ft 218kts
09-Nov-20 07:26 36.159508 -120.358601 147 8433ft 218kts
09-Nov-20 07:27 36.107647 -120.319717 148 8469ft 218kts
09-Nov-20 07:28 36.055684 -120.281055 147 8475ft 217kts
09-Nov-20 07:29 36.003929 -120.242385 147 8478ft 218kts
09-Nov-20 07:30 35.951732 -120.203777 148 8472ft 220kts
09-Nov-20 07:31 35.898883 -120.163698 146 8463ft 224kts
09-Nov-20 07:32 35.845453 -120.124759 148 8548ft 222kts
09-Nov-20 07:33 35.792367 -120.084890 149 8523ft 223kts
09-Nov-20 07:34 35.739174 -120.046133 150 8556ft 224kts
09-Nov-20 07:35 35.685766 -120.006491 145 8507ft 224kts
09-Nov-20 07:36 35.628812 -119.980911 192 8495ft 223kts
09-Nov-20 07:37 35.578693 -120.022418 215 8483ft 220kts
09-Nov-20 07:38 35.524014 -120.057185 211 8509ft 212kts
09-Nov-20 07:39 35.475862 -120.088034 211 8155ft 182kts
09-Nov-20 07:40 35.433406 -120.115862 213 7635ft 163kts
09-Nov-20 07:41 35.395513 -120.140098 211 6995ft 151kts
09-Nov-20 07:42 35.359955 -120.163072 212 6430ft 123kts
09-Nov-20 07:43 35.321230 -120.188041 211 6452ft 193kts
09-Nov-20 07:44 35.271247 -120.220517 212 6432ft 210kts
09-Nov-20 07:45 35.219228 -120.253371 210 6439ft 208kts
09-Nov-20 07:46 35.168238 -120.286023 210 6331ft 203kts
09-Nov-20 07:47 35.121439 -120.315786 211 5799ft 181kts
09-Nov-20 07:48 35.077616 -120.343817 211 5170ft 180kts
09-Nov-20 07:49 35.033467 -120.371931 212 4110ft 177kts
09-Nov-20 07:50 34.991698 -120.398581 212 3077ft 176kts
09-Nov-20 07:51 34.951008 -120.424450 211 1984ft 154kts
09-Nov-20 07:52 34.920085 -120.433318 139 1113ft 121kts
09-Nov-20 07:53 34.895992 -120.406149 136 977ft 115kts
09-Nov-20 07:54 34.875299 -120.427279 279 990ft 124kts
09-Nov-20 07:55 34.895088 -120.448585 316 264ft 65kts
09-Nov-20 07:56 34.898037 -120.449643 136 264ft 12kts
09-Nov-20 07:57 34.894681 -120.445304 49 264ft 9kts
09-Nov-20 07:58 34.895991 -120.444977 313 264ft 0kts
09-Nov-20 07:59 34.895991 -120.444977 313 264ft 0kts
09-Nov-20 08:00 34.895991 -120.444977 313 264ft 0kts
09-Nov-20 08:01 34.895991 -120.444977 313 264ft 0kts
09-Nov-20 08:02 34.895991 -120.444977 313 264ft 0kts
09-Nov-20 08:03 34.895991 -120.444977 313 264ft 0kts
09-Nov-20 08:04 34.895991 -120.444977 313 264ft 0kts
09-Nov-20 08:05 34.895991 -120.444977 313 264ft 0kts
09-Nov-20 08:06 34.895991 -120.444977 313 264ft 0kts
09-Nov-20 08:07 34.895991 -120.444977 313 264ft 0kts
09-Nov-20 08:08 34.895991 -120.444977 313 264ft 0kts
09-Nov-20 08:09 34.895991 -120.444977 313 264ft 0kts
09-Nov-20 08:10 34.895991 -120.444977 313 264ft 0kts

Navigation Log

Ident Type
Flight plan parsing failed, navigation log unavailable